createdAt,value
2023-04-26T00:02:00.578Z,5.55
2023-04-26T00:04:29.406Z,4.28
2023-04-26T00:06:57.323Z,6.85
2023-04-26T00:09:24.784Z,5.22
2023-04-26T00:11:52.194Z,6.13
2023-04-26T00:14:19.813Z,4.53
2023-04-26T00:16:47.241Z,6.30
2023-04-26T00:19:15.982Z,4.32
2023-04-26T00:21:43.267Z,6.75
2023-04-26T00:24:10.502Z,4.13
2023-04-26T00:26:38.595Z,3.72
2023-04-26T00:29:06.060Z,6.57
2023-04-26T00:31:33.523Z,5.18
2023-04-26T00:34:00.824Z,8.13
2023-04-26T00:36:28.049Z,7.03
2023-04-26T00:38:55.606Z,5.85
2023-04-26T00:41:22.939Z,4.88
2023-04-26T00:43:50.405Z,8.07
2023-04-26T00:46:17.757Z,20.92
2023-04-26T00:48:45.014Z,8.27
2023-04-26T00:51:13.089Z,8.27
2023-04-26T00:53:40.626Z,19.95
2023-04-26T00:56:08.860Z,8.88
2023-04-26T00:58:37.237Z,15.20
2023-04-26T01:01:04.558Z,9.55
2023-04-26T01:03:32.491Z,6.38
2023-04-26T01:05:59.802Z,7.85
2023-04-26T01:08:27.141Z,9.50
2023-04-26T01:10:54.449Z,5.47
2023-04-26T01:13:22.381Z,5.22
2023-04-26T01:15:49.657Z,49.70
2023-04-26T01:18:16.929Z,30.08
2023-04-26T01:20:44.247Z,13.82
2023-04-26T01:23:11.847Z,8.07
2023-04-26T01:25:39.121Z,48.35
2023-04-26T01:28:06.410Z,38.17
2023-04-26T01:30:34.004Z,27.52
2023-04-26T01:33:01.421Z,15.63
2023-04-26T01:35:28.683Z,11.45
2023-04-26T01:37:56.067Z,29.40
2023-04-26T01:40:23.272Z,19.20
2023-04-26T01:42:50.546Z,33.83
2023-04-26T01:45:17.853Z,110.20
2023-04-26T01:47:45.182Z,111.45
2023-04-26T01:50:12.405Z,104.30
2023-04-26T01:52:39.679Z,101.30
2023-04-26T01:55:07.585Z,121.88
2023-04-26T01:57:34.863Z,92.88
2023-04-26T02:00:02.658Z,49.60
2023-04-26T02:02:30.120Z,41.10
2023-04-26T02:04:57.531Z,48.80
2023-04-26T02:07:24.822Z,68.43
2023-04-26T02:09:52.082Z,80.68
2023-04-26T02:12:19.310Z,86.75
2023-04-26T02:14:46.685Z,72.30
2023-04-26T02:17:14.789Z,69.32
2023-04-26T02:19:42.172Z,69.97
2023-04-26T02:22:09.468Z,66.90
2023-04-26T02:24:36.965Z,83.15
2023-04-26T02:27:05.433Z,73.00
2023-04-26T02:29:43.668Z,77.95
2023-04-26T02:32:11.528Z,83.97
2023-04-26T02:34:39.162Z,121.95
2023-04-26T02:37:07.482Z,225.85
2023-04-26T02:39:35.943Z,174.50
2023-04-26T02:42:03.286Z,135.57
2023-04-26T02:44:33.358Z,50.08
2023-04-26T02:47:00.632Z,31.52
2023-04-26T02:49:28.029Z,11.05
2023-04-26T02:51:55.262Z,10.90
2023-04-26T02:54:22.474Z,6.57
2023-04-26T02:56:49.694Z,10.32
2023-04-26T02:59:16.925Z,9.75
2023-04-26T03:01:44.436Z,13.07
2023-04-26T03:04:11.937Z,9.55
2023-04-26T03:06:39.413Z,11.07
2023-04-26T03:09:06.792Z,11.95
2023-04-26T03:11:34.493Z,7.45
2023-04-26T03:14:01.651Z,7.07
2023-04-26T03:16:28.967Z,12.10
2023-04-26T03:18:56.262Z,9.95
2023-04-26T03:21:23.513Z,12.20
2023-04-26T03:23:50.997Z,9.05
2023-04-26T03:26:18.204Z,13.05
2023-04-26T03:28:45.412Z,8.57
2023-04-26T03:31:13.002Z,9.13
2023-04-26T03:33:40.424Z,9.40
2023-04-26T03:36:07.955Z,15.10
2023-04-26T03:38:36.082Z,11.77
2023-04-26T03:41:03.371Z,12.02
2023-04-26T03:43:31.241Z,19.63
2023-04-26T03:45:58.472Z,13.80
2023-04-26T03:48:25.908Z,14.52
2023-04-26T03:50:53.671Z,15.07
2023-04-26T03:53:20.956Z,15.50
2023-04-26T03:55:48.183Z,18.98
2023-04-26T03:58:15.390Z,22.23
2023-04-26T04:00:43.644Z,17.45
2023-04-26T04:03:11.358Z,24.13
2023-04-26T04:05:38.854Z,20.58
2023-04-26T04:08:06.657Z,25.02
2023-04-26T04:10:33.925Z,16.52
2023-04-26T04:13:01.164Z,19.30
2023-04-26T04:15:28.382Z,20.48
2023-04-26T04:17:56.236Z,18.67
2023-04-26T04:20:23.639Z,20.23
2023-04-26T04:22:51.222Z,20.58
2023-04-26T04:25:21.244Z,18.35
2023-04-26T04:27:48.782Z,20.42
2023-04-26T04:30:16.211Z,25.02
2023-04-26T04:32:45.138Z,22.98
2023-04-26T04:35:13.311Z,27.25
2023-04-26T04:37:40.646Z,21.35
2023-04-26T04:40:11.679Z,22.52
2023-04-26T04:42:39.194Z,16.85
2023-04-26T04:45:07.180Z,19.73
2023-04-26T04:47:37.786Z,17.77
2023-04-26T04:50:06.613Z,15.75
2023-04-26T04:52:34.143Z,12.68
2023-04-26T04:55:01.717Z,13.68
2023-04-26T04:57:29.852Z,16.48
2023-04-26T04:59:57.129Z,16.25
2023-04-26T05:02:25.614Z,17.20
2023-04-26T05:04:53.231Z,23.15
2023-04-26T05:07:20.534Z,20.75
2023-04-26T05:09:47.911Z,14.85
2023-04-26T05:12:15.145Z,12.35
2023-04-26T05:14:42.524Z,12.30
2023-04-26T05:17:09.724Z,12.85
2023-04-26T05:19:37.119Z,11.95
2023-04-26T05:22:04.392Z,14.40
2023-04-26T05:24:32.719Z,14.90
2023-04-26T05:27:00.071Z,12.50
2023-04-26T05:29:31.159Z,12.80
2023-04-26T05:31:58.555Z,11.07
2023-04-26T05:34:26.187Z,11.65
2023-04-26T05:36:53.408Z,10.70
2023-04-26T05:39:21.454Z,10.30
2023-04-26T05:41:48.676Z,11.82
2023-04-26T05:44:16.701Z,7.60
2023-04-26T05:46:43.997Z,10.75
2023-04-26T05:49:11.264Z,7.75
2023-04-26T05:51:38.487Z,11.38
2023-04-26T05:54:05.949Z,8.18
2023-04-26T05:56:33.341Z,9.40
2023-04-26T05:59:00.644Z,10.15
2023-04-26T06:01:27.918Z,9.43
2023-04-26T06:03:58.037Z,9.95
2023-04-26T06:08:54.233Z,12.07
2023-04-26T06:11:22.642Z,11.63
2023-04-26T06:13:49.888Z,14.63
2023-04-26T06:16:17.939Z,10.30
2023-04-26T06:18:45.344Z,11.75
2023-04-26T06:21:12.689Z,10.93
2023-04-26T06:23:39.928Z,7.15
2023-04-26T06:26:07.401Z,7.28
2023-04-26T06:28:34.727Z,4.32
2023-04-26T06:31:02.020Z,5.50
2023-04-26T06:33:29.369Z,6.20
2023-04-26T06:35:56.620Z,5.00
2023-04-26T06:38:23.855Z,6.28
2023-04-26T06:40:51.173Z,6.47
2023-04-26T06:43:18.593Z,4.85
2023-04-26T06:45:46.079Z,8.77
2023-04-26T06:48:13.497Z,6.97
2023-04-26T06:50:40.756Z,5.28
2023-04-26T06:53:08.418Z,7.05
2023-04-26T06:55:35.888Z,6.20
2023-04-26T06:58:03.238Z,6.20
2023-04-26T07:00:30.623Z,6.68
2023-04-26T07:02:58.142Z,5.97
2023-04-26T07:05:25.566Z,4.85
2023-04-26T07:07:53.528Z,6.07
2023-04-26T07:10:21.253Z,5.72
2023-04-26T07:12:48.493Z,8.45
2023-04-26T07:15:16.013Z,4.13
2023-04-26T07:17:43.632Z,5.25
2023-04-26T07:20:11.284Z,6.97
2023-04-26T07:22:38.948Z,4.97
2023-04-26T07:25:06.516Z,8.82
2023-04-26T07:27:34.562Z,6.07
2023-04-26T07:30:01.944Z,6.00
2023-04-26T07:32:30.063Z,5.28
2023-04-26T07:34:57.369Z,6.85
2023-04-26T07:37:24.609Z,11.40
2023-04-26T07:39:51.838Z,6.60
2023-04-26T07:42:19.122Z,7.88
2023-04-26T07:44:48.375Z,8.75
2023-04-26T07:47:15.822Z,5.82
2023-04-26T07:49:43.333Z,4.40
2023-04-26T07:52:11.574Z,7.35
2023-04-26T07:54:40.345Z,4.63
2023-04-26T07:57:07.616Z,3.97
2023-04-26T07:59:35.387Z,5.72
2023-04-26T08:02:02.643Z,7.57
2023-04-26T08:04:33.582Z,5.53
2023-04-26T08:07:02.041Z,7.55
2023-04-26T08:09:30.757Z,7.60
2023-04-26T08:11:58.257Z,6.78
2023-04-26T08:14:25.592Z,5.93
2023-04-26T08:16:52.906Z,6.40
2023-04-26T08:19:20.261Z,6.47
2023-04-26T08:21:47.831Z,8.40
2023-04-26T08:24:15.171Z,16.20
2023-04-26T08:26:42.828Z,6.15
2023-04-26T08:29:10.070Z,7.88
2023-04-26T08:31:37.817Z,8.07
2023-04-26T08:34:06.431Z,15.60
2023-04-26T08:36:38.861Z,8.40
2023-04-26T08:39:06.999Z,5.30
2023-04-26T08:41:37.612Z,3.38
2023-04-26T08:44:05.830Z,9.05
2023-04-26T08:46:41.524Z,4.78
2023-04-26T08:49:34.899Z,3.10
2023-04-26T08:52:02.278Z,6.85
2023-04-26T08:54:29.818Z,4.43
2023-04-26T08:56:59.175Z,1.77
2023-04-26T08:59:26.716Z,4.95
2023-04-26T09:01:54.123Z,7.80
2023-04-26T09:04:21.706Z,10.82
2023-04-26T09:06:49.160Z,2.97
2023-04-26T09:09:18.778Z,6.75
2023-04-26T09:11:56.619Z,7.05
2023-04-26T09:14:24.269Z,11.43
2023-04-26T09:16:52.240Z,13.80
2023-04-26T09:19:40.390Z,6.82
2023-04-26T09:22:08.955Z,8.55
2023-04-26T09:24:52.829Z,9.43
2023-04-26T09:27:20.415Z,9.18
2023-04-26T09:30:14.121Z,8.70
2023-04-26T09:32:58.531Z,4.75
2023-04-26T09:35:28.856Z,8.07
2023-04-26T09:38:11.805Z,10.38
2023-04-26T09:40:46.730Z,13.32
2023-04-26T09:43:17.676Z,6.40
2023-04-26T09:48:23.256Z,6.78
2023-04-26T09:50:52.597Z,8.50
2023-04-26T09:53:31.072Z,11.43
2023-04-26T09:56:08.864Z,6.72
2023-04-26T09:58:52.538Z,8.98
2023-04-26T10:01:20.191Z,6.35
2023-04-26T10:03:47.920Z,11.13
2023-04-26T10:06:16.074Z,4.75
2023-04-26T10:08:43.772Z,11.13
2023-04-26T10:11:12.805Z,4.45
2023-04-26T10:13:41.678Z,6.03
2023-04-26T10:16:10.095Z,4.47
2023-04-26T10:18:37.811Z,12.25
2023-04-26T10:21:12.386Z,13.63
2023-04-26T10:23:39.654Z,16.83
2023-04-26T10:26:07.594Z,16.13
2023-04-26T10:28:44.723Z,7.35
2023-04-26T10:31:12.056Z,8.48
2023-04-26T10:33:39.423Z,11.68
2023-04-26T10:36:13.396Z,9.60
2023-04-26T10:38:42.376Z,8.68
2023-04-26T10:41:29.234Z,4.00
2023-04-26T10:43:56.571Z,3.28
2023-04-26T10:46:40.131Z,4.05
2023-04-26T10:49:17.929Z,7.28
2023-04-26T10:52:13.951Z,7.97
2023-04-26T10:54:54.086Z,11.35
2023-04-26T10:57:21.808Z,15.07
2023-04-26T11:00:16.941Z,10.85
2023-04-26T11:02:51.106Z,4.18
2023-04-26T11:05:36.236Z,12.18
2023-04-26T11:08:09.131Z,11.55
2023-04-26T11:10:38.005Z,16.63
2023-04-26T11:13:05.320Z,11.40
2023-04-26T11:15:35.334Z,4.55
2023-04-26T11:18:04.399Z,4.35
2023-04-26T11:20:32.542Z,15.32
2023-04-26T11:23:00.161Z,9.93
2023-04-26T11:25:28.388Z,5.80
2023-04-26T11:28:02.635Z,10.00
2023-04-26T11:30:31.741Z,4.50
2023-04-26T11:33:00.228Z,7.90
2023-04-26T11:35:29.543Z,12.20
2023-04-26T11:38:00.830Z,8.10
2023-04-26T11:40:29.887Z,9.77
2023-04-26T11:43:01.739Z,20.55
2023-04-26T11:45:29.410Z,16.10
2023-04-26T11:47:57.199Z,14.00
2023-04-26T11:50:27.148Z,6.38
2023-04-26T11:52:55.884Z,8.90
2023-04-26T11:55:31.798Z,5.22
2023-04-26T11:57:59.603Z,6.70
2023-04-26T12:00:27.072Z,10.65
2023-04-26T12:02:54.652Z,16.27
2023-04-26T12:05:22.845Z,4.43
2023-04-26T12:07:55.406Z,6.55
2023-04-26T12:10:22.772Z,3.47
2023-04-26T12:12:54.571Z,6.40
2023-04-26T12:15:40.067Z,3.30
2023-04-26T12:18:12.608Z,19.77
2023-04-26T12:20:41.341Z,13.27
2023-04-26T12:23:09.908Z,16.15
2023-04-26T12:25:38.396Z,7.40
2023-04-26T12:28:11.786Z,3.28
2023-04-26T12:30:39.836Z,8.95
2023-04-26T12:33:16.191Z,11.23
2023-04-26T12:35:45.130Z,15.85
2023-04-26T12:38:13.266Z,12.55
2023-04-26T12:40:41.825Z,7.70
2023-04-26T12:43:09.709Z,14.57
2023-04-26T12:45:37.172Z,20.15
2023-04-26T12:48:05.041Z,18.15
2023-04-26T12:50:32.346Z,6.03
2023-04-26T12:52:59.624Z,14.10
2023-04-26T12:55:26.830Z,10.63
2023-04-26T12:57:54.398Z,12.82
2023-04-26T13:00:21.919Z,5.05
2023-04-26T13:02:49.325Z,15.82
2023-04-26T13:05:16.699Z,19.20
2023-04-26T13:07:44.897Z,21.95
2023-04-26T13:10:13.319Z,27.52
2023-04-26T13:12:41.022Z,18.05
2023-04-26T13:15:08.480Z,20.20
2023-04-26T13:17:37.273Z,6.20
2023-04-26T13:20:06.340Z,16.20
2023-04-26T13:22:33.943Z,19.52
2023-04-26T13:25:01.207Z,20.50
2023-04-26T13:27:31.162Z,10.50
2023-04-26T13:29:59.019Z,17.02
2023-04-26T13:32:26.489Z,8.38
2023-04-26T13:34:54.349Z,4.60
2023-04-26T13:37:22.504Z,17.45
2023-04-26T13:39:49.835Z,5.93
2023-04-26T13:42:17.620Z,16.27
2023-04-26T13:44:44.853Z,11.43
2023-04-26T13:47:12.067Z,6.88
2023-04-26T13:49:41.552Z,12.63
2023-04-26T13:52:08.833Z,11.02
2023-04-26T13:54:36.872Z,17.85
2023-04-26T13:57:04.461Z,23.77
2023-04-26T13:59:32.321Z,7.75
2023-04-26T14:01:59.809Z,19.05
2023-04-26T14:04:27.475Z,11.00
2023-04-26T14:06:54.918Z,14.23
2023-04-26T14:09:22.178Z,11.40
2023-04-26T14:11:57.174Z,7.93
2023-04-26T14:14:34.576Z,11.32
2023-04-26T14:17:01.870Z,28.55
2023-04-26T14:19:29.405Z,22.17
2023-04-26T14:21:56.604Z,21.70
2023-04-26T14:24:24.204Z,22.23
2023-04-26T14:26:51.516Z,25.77
2023-04-26T14:29:18.815Z,12.80
2023-04-26T14:31:46.285Z,11.57
2023-04-26T14:34:13.659Z,15.20
2023-04-26T14:36:41.159Z,10.73
2023-04-26T14:39:08.789Z,15.90
2023-04-26T14:41:36.413Z,29.08
2023-04-26T14:44:03.797Z,12.32
2023-04-26T14:46:31.338Z,6.97
2023-04-26T14:48:58.611Z,17.23
2023-04-26T14:51:26.324Z,24.55
2023-04-26T14:53:53.557Z,15.75
2023-04-26T14:56:20.778Z,7.53
2023-04-26T14:58:47.984Z,6.38
2023-04-26T15:01:15.517Z,18.25
2023-04-26T15:03:42.991Z,22.67
2023-04-26T15:06:10.452Z,15.07
2023-04-26T15:08:37.716Z,13.40
2023-04-26T15:11:05.090Z,6.45
2023-04-26T15:13:32.501Z,9.00
2023-04-26T15:16:07.547Z,10.82
2023-04-26T15:18:35.376Z,13.43
2023-04-26T15:21:02.831Z,9.50
2023-04-26T15:23:30.114Z,11.25
2023-04-26T15:26:02.164Z,7.53
2023-04-26T15:28:29.647Z,3.78
2023-04-26T15:31:08.758Z,10.40
2023-04-26T15:33:36.442Z,13.68
2023-04-26T15:36:03.941Z,5.35
2023-04-26T15:38:31.301Z,3.95
2023-04-26T15:40:58.624Z,8.80
2023-04-26T15:43:25.924Z,7.40
2023-04-26T15:45:53.250Z,11.95
2023-04-26T15:48:20.631Z,12.55
2023-04-26T15:50:47.951Z,10.57
2023-04-26T15:53:16.521Z,11.27
2023-04-26T15:55:44.281Z,14.60
2023-04-26T15:58:11.853Z,7.85
2023-04-26T16:00:39.215Z,11.80
2023-04-26T16:03:07.187Z,13.15
2023-04-26T16:05:34.682Z,11.88
2023-04-26T16:08:04.047Z,12.90
2023-04-26T16:10:31.299Z,13.00
2023-04-26T16:12:58.913Z,7.20
2023-04-26T16:15:26.410Z,7.97
2023-04-26T16:17:53.816Z,8.63
2023-04-26T16:20:21.987Z,4.78
2023-04-26T16:22:49.954Z,7.25
2023-04-26T16:25:17.512Z,7.22
2023-04-26T16:27:44.884Z,6.03
2023-04-26T16:30:12.403Z,9.05
2023-04-26T16:32:39.841Z,7.78
2023-04-26T16:35:08.899Z,9.43
2023-04-26T16:37:39.267Z,10.77
2023-04-26T16:40:07.899Z,9.20
2023-04-26T16:42:35.460Z,9.13
2023-04-26T16:45:02.768Z,7.13
2023-04-26T16:47:30.194Z,8.45
2023-04-26T16:49:57.660Z,6.28
2023-04-26T16:52:24.919Z,7.47
2023-04-26T16:54:52.390Z,9.98
2023-04-26T16:57:19.679Z,8.55
2023-04-26T16:59:47.201Z,7.13
2023-04-26T17:02:14.579Z,5.97
2023-04-26T17:04:42.262Z,10.20
2023-04-26T17:07:10.777Z,6.93
2023-04-26T17:09:39.248Z,11.40
2023-04-26T17:12:07.503Z,6.05
2023-04-26T17:14:34.913Z,9.88
2023-04-26T17:17:02.138Z,6.93
2023-04-26T17:19:29.448Z,10.30
2023-04-26T17:21:56.671Z,6.88
2023-04-26T17:24:23.884Z,7.40
2023-04-26T17:26:51.381Z,3.33
2023-04-26T17:29:18.689Z,3.47
2023-04-26T17:31:46.096Z,11.32
2023-04-26T17:34:13.459Z,9.70
2023-04-26T17:36:40.725Z,12.02
2023-04-26T17:39:09.249Z,8.45
2023-04-26T17:41:36.904Z,5.53
2023-04-26T17:44:04.282Z,10.27
2023-04-26T17:46:31.790Z,16.35
2023-04-26T17:48:59.839Z,15.52
2023-04-26T17:51:27.176Z,14.20
2023-04-26T17:53:54.429Z,9.50
2023-04-26T17:56:21.905Z,8.23
2023-04-26T17:58:49.405Z,10.27
2023-04-26T18:01:16.751Z,9.88
2023-04-26T18:03:44.638Z,11.20
2023-04-26T18:06:11.955Z,10.63
2023-04-26T18:08:39.310Z,11.38
2023-04-26T18:11:06.576Z,8.98
2023-04-26T18:13:34.663Z,10.80
2023-04-26T18:16:03.383Z,7.47
2023-04-26T18:18:32.473Z,6.53
2023-04-26T18:21:00.966Z,4.80
2023-04-26T18:23:28.416Z,4.30
2023-04-26T18:25:55.717Z,7.38
2023-04-26T18:28:23.083Z,4.93
2023-04-26T18:30:50.413Z,5.47
2023-04-26T18:33:17.944Z,7.13
2023-04-26T18:35:45.610Z,3.95
2023-04-26T18:38:12.972Z,4.95
2023-04-26T18:40:43.711Z,10.70
2023-04-26T18:43:11.308Z,5.13
2023-04-26T18:45:38.842Z,5.53
2023-04-26T18:48:06.614Z,2.60
2023-04-26T18:50:34.451Z,4.93
2023-04-26T18:53:01.814Z,3.10
2023-04-26T18:55:29.255Z,4.43
2023-04-26T18:57:56.528Z,2.92
2023-04-26T19:00:24.604Z,5.60
2023-04-26T19:02:52.383Z,3.70
2023-04-26T19:05:19.956Z,3.75
2023-04-26T19:07:47.574Z,3.20
2023-04-26T19:10:16.303Z,3.22
2023-04-26T19:12:44.301Z,4.25
2023-04-26T19:15:11.992Z,3.38
2023-04-26T19:17:39.720Z,3.92
2023-04-26T19:20:10.280Z,5.80
2023-04-26T19:22:37.693Z,3.55
2023-04-26T19:25:05.554Z,3.80
2023-04-26T19:27:32.909Z,2.95
2023-04-26T19:30:00.172Z,3.97
2023-04-26T19:32:27.511Z,2.80
2023-04-26T19:34:54.772Z,2.97
2023-04-26T19:37:22.116Z,3.33
2023-04-26T19:39:49.405Z,2.63
2023-04-26T19:42:16.720Z,3.13
2023-04-26T19:44:43.994Z,3.63
2023-04-26T19:47:11.300Z,2.63
2023-04-26T19:49:38.623Z,5.78
2023-04-26T19:52:06.127Z,3.38
2023-04-26T19:54:33.349Z,3.08
2023-04-26T19:57:01.459Z,3.05
2023-04-26T19:59:28.694Z,3.83
2023-04-26T20:01:56.030Z,2.72
2023-04-26T20:04:23.397Z,3.65
2023-04-26T20:06:50.909Z,4.53
2023-04-26T20:09:18.209Z,4.25
2023-04-26T20:11:45.509Z,2.78
2023-04-26T20:14:12.721Z,2.95
2023-04-26T20:16:40.302Z,7.13
2023-04-26T20:19:07.839Z,2.88
2023-04-26T20:21:36.350Z,3.90
2023-04-26T20:24:03.730Z,3.35
2023-04-26T20:26:31.197Z,2.80
2023-04-26T20:28:58.513Z,3.00
2023-04-26T20:31:25.766Z,4.30
2023-04-26T20:33:53.652Z,4.90
2023-04-26T20:36:21.019Z,3.78
2023-04-26T20:38:48.333Z,3.08
2023-04-26T20:41:15.613Z,3.13
2023-04-26T20:43:43.209Z,4.80
2023-04-26T20:46:11.027Z,3.95
2023-04-26T20:48:38.700Z,2.63
2023-04-26T20:51:05.931Z,3.15
2023-04-26T20:53:33.258Z,2.80
2023-04-26T20:56:00.581Z,5.13
2023-04-26T20:58:27.886Z,3.00
2023-04-26T21:00:55.709Z,2.80
2023-04-26T21:03:23.286Z,2.63
2023-04-26T21:05:50.671Z,4.38
2023-04-26T21:08:18.225Z,3.40
2023-04-26T21:10:45.554Z,2.70
2023-04-26T21:13:14.022Z,4.72
2023-04-26T21:15:41.615Z,8.20
2023-04-26T21:18:09.140Z,3.00
2023-04-26T21:20:37.784Z,3.17
2023-04-26T21:23:05.127Z,4.32
2023-04-26T21:25:32.770Z,3.85
2023-04-26T21:28:00.153Z,4.90
2023-04-26T21:30:27.516Z,3.40
2023-04-26T21:32:54.913Z,4.63
2023-04-26T21:35:22.885Z,3.22
2023-04-26T21:37:50.457Z,3.30
2023-04-26T21:40:18.181Z,3.35
2023-04-26T21:42:57.710Z,3.58
2023-04-26T21:45:32.024Z,6.30
2023-04-26T21:47:59.435Z,3.60
2023-04-26T21:50:26.843Z,4.47
2023-04-26T21:52:54.347Z,3.53
2023-04-26T21:55:21.634Z,4.82
2023-04-26T21:57:48.977Z,3.05
2023-04-26T22:00:17.367Z,4.28
2023-04-26T22:02:44.954Z,4.18
2023-04-26T22:05:12.803Z,3.58
2023-04-26T22:07:40.224Z,3.70
2023-04-26T22:10:08.127Z,3.30
2023-04-26T22:12:35.792Z,3.30
2023-04-26T22:15:03.902Z,3.53
2023-04-26T22:17:31.609Z,3.20
2023-04-26T22:19:58.964Z,2.83
2023-04-26T22:22:26.322Z,3.30
2023-04-26T22:24:53.728Z,3.22
2023-04-26T22:27:21.068Z,4.10
2023-04-26T22:29:48.342Z,3.15
2023-04-26T22:32:15.889Z,4.85
2023-04-26T22:34:43.902Z,5.82
2023-04-26T22:37:20.779Z,5.07
2023-04-26T22:39:49.069Z,3.60
2023-04-26T22:42:16.492Z,6.57
2023-04-26T22:44:44.070Z,5.18
2023-04-26T22:47:11.352Z,4.03
2023-04-26T22:49:38.690Z,5.78
2023-04-26T22:52:12.009Z,3.92
2023-04-26T22:54:44.531Z,4.63
2023-04-26T22:57:11.888Z,4.25
2023-04-26T22:59:39.208Z,4.00
2023-04-26T23:02:07.241Z,3.78
2023-04-26T23:04:34.799Z,4.90
2023-04-26T23:07:02.178Z,3.22
2023-04-26T23:09:29.761Z,5.45
2023-04-26T23:11:59.344Z,3.25
2023-04-26T23:14:29.626Z,5.18
2023-04-26T23:16:58.852Z,4.15
2023-04-26T23:19:26.838Z,4.40
2023-04-26T23:21:54.388Z,3.55
2023-04-26T23:24:21.818Z,6.65
2023-04-26T23:26:49.237Z,3.80
2023-04-26T23:29:16.748Z,5.40
2023-04-26T23:31:44.207Z,4.05
2023-04-26T23:34:11.644Z,5.35
2023-04-26T23:36:39.005Z,5.20
2023-04-26T23:39:07.250Z,7.78
2023-04-26T23:41:34.536Z,4.47
2023-04-26T23:44:01.857Z,5.68
2023-04-26T23:46:29.610Z,5.03
2023-04-26T23:48:57.003Z,3.50
2023-04-26T23:51:24.358Z,5.32
2023-04-26T23:53:51.717Z,4.60
2023-04-26T23:56:19.411Z,5.72
2023-04-26T23:58:46.705Z,5.95
